createdAt,value
2023-02-15T00:02:11.106Z,7.15
2023-02-15T00:04:51.185Z,6.94
2023-02-15T00:07:21.087Z,7.11
2023-02-15T00:09:49.314Z,6.86
2023-02-15T00:12:18.281Z,6.96
2023-02-15T00:14:47.578Z,7.01
2023-02-15T00:17:15.743Z,7.07
2023-02-15T00:19:43.974Z,7.08
2023-02-15T00:22:11.948Z,7.21
2023-02-15T00:24:39.937Z,6.94
2023-02-15T00:27:13.460Z,6.97
2023-02-15T00:29:41.342Z,6.69
2023-02-15T00:32:10.588Z,6.58
2023-02-15T00:34:38.484Z,6.52
2023-02-15T00:37:06.381Z,6.64
2023-02-15T00:39:34.306Z,6.81
2023-02-15T00:42:02.290Z,6.93
2023-02-15T00:44:30.295Z,6.89
2023-02-15T00:46:58.230Z,6.98
2023-02-15T00:49:27.577Z,6.94
2023-02-15T00:51:55.472Z,6.97
2023-02-15T00:54:23.371Z,6.95
2023-02-15T00:56:51.559Z,6.77
2023-02-15T00:59:19.450Z,6.92
2023-02-15T01:01:49.401Z,6.81
2023-02-15T01:04:17.398Z,6.67
2023-02-15T01:06:46.691Z,6.88
2023-02-15T01:09:14.872Z,6.97
2023-02-15T01:11:42.776Z,6.90
2023-02-15T01:14:10.652Z,6.83
2023-02-15T01:16:40.272Z,6.74
2023-02-15T01:19:08.263Z,6.73
2023-02-15T01:21:36.599Z,6.63
2023-02-15T01:24:06.133Z,6.72
2023-02-15T01:26:34.007Z,6.66
2023-02-15T01:29:02.138Z,6.60
2023-02-15T01:31:30.103Z,6.54
2023-02-15T01:33:58.133Z,6.58
2023-02-15T01:36:26.021Z,6.52
2023-02-15T01:38:53.901Z,6.48
2023-02-15T01:41:23.908Z,6.55
2023-02-15T01:43:54.577Z,6.49
2023-02-15T01:46:26.811Z,6.45
2023-02-15T01:48:58.840Z,6.47
2023-02-15T01:51:29.757Z,6.44
2023-02-15T01:54:03.494Z,6.39
2023-02-15T01:56:36.814Z,6.44
2023-02-15T01:59:09.887Z,6.44
2023-02-15T02:01:37.944Z,6.34
2023-02-15T02:04:13.865Z,6.40
2023-02-15T02:06:42.199Z,6.44
2023-02-15T02:09:11.258Z,6.41
2023-02-15T02:11:42.392Z,6.32
2023-02-15T02:14:14.630Z,6.16
2023-02-15T02:16:50.331Z,6.31
2023-02-15T02:19:53.334Z,6.19
2023-02-15T02:23:00.736Z,6.37
2023-02-15T02:26:17.825Z,6.29
2023-02-15T02:29:24.499Z,6.24
2023-02-15T02:32:21.479Z,6.21
2023-02-15T02:34:57.532Z,6.25
2023-02-15T02:37:32.956Z,6.03
2023-02-15T02:40:10.161Z,6.04
2023-02-15T02:42:41.676Z,6.01
2023-02-15T02:45:12.485Z,6.11
2023-02-15T02:47:45.986Z,5.99
2023-02-15T02:50:20.139Z,6.14
2023-02-15T02:52:49.575Z,6.03
2023-02-15T02:55:23.333Z,5.74
2023-02-15T02:57:55.436Z,5.78
2023-02-15T03:00:25.702Z,6.03
2023-02-15T03:02:59.341Z,6.18
2023-02-15T03:05:31.620Z,5.98
2023-02-15T03:08:02.173Z,6.04
2023-02-15T03:10:31.601Z,5.99
2023-02-15T03:12:59.643Z,6.03
2023-02-15T03:15:52.536Z,5.84
2023-02-15T03:18:27.509Z,5.81
2023-02-15T03:20:58.620Z,5.85
2023-02-15T03:23:30.013Z,5.49
2023-02-15T03:26:03.861Z,5.48
2023-02-15T03:28:38.627Z,5.49
2023-02-15T03:31:09.322Z,5.60
2023-02-15T03:33:42.950Z,5.80
2023-02-15T03:36:20.846Z,5.51
2023-02-15T03:38:53.932Z,5.35
2023-02-15T03:41:26.141Z,5.56
2023-02-15T03:43:58.307Z,5.67
2023-02-15T03:46:30.516Z,5.54
2023-02-15T03:49:04.025Z,5.50
2023-02-15T03:51:39.158Z,5.65
2023-02-15T03:54:10.887Z,5.51
2023-02-15T03:56:41.158Z,5.39
2023-02-15T03:59:26.583Z,5.14
2023-02-15T04:02:07.723Z,4.92
2023-02-15T04:04:37.843Z,4.99
2023-02-15T04:07:08.523Z,5.09
2023-02-15T04:09:54.188Z,5.17
2023-02-15T04:12:22.520Z,5.01
2023-02-15T04:15:08.018Z,5.05
2023-02-15T04:17:37.888Z,4.99
2023-02-15T04:20:24.127Z,5.10
2023-02-15T04:23:10.775Z,4.93
2023-02-15T04:25:38.709Z,4.90
2023-02-15T04:28:08.541Z,4.94
2023-02-15T04:30:36.475Z,4.68
2023-02-15T04:33:04.492Z,4.69
2023-02-15T04:35:32.629Z,4.90
2023-02-15T04:38:01.983Z,4.61
2023-02-15T04:40:30.567Z,4.69
2023-02-15T04:42:58.457Z,4.35
2023-02-15T04:45:26.365Z,4.45
2023-02-15T04:47:54.243Z,4.40
2023-02-15T04:50:22.083Z,4.57
2023-02-15T04:52:50.089Z,4.60
2023-02-15T04:55:19.394Z,4.63
2023-02-15T04:57:48.094Z,4.52
2023-02-15T05:00:16.489Z,4.44
2023-02-15T05:02:44.334Z,4.29
2023-02-15T05:05:13.992Z,3.94
2023-02-15T05:07:42.055Z,4.51
2023-02-15T05:10:10.994Z,4.42
2023-02-15T05:12:40.216Z,4.20
2023-02-15T05:15:08.659Z,3.82
2023-02-15T05:17:36.659Z,4.19
2023-02-15T05:20:05.042Z,4.21
2023-02-15T05:22:32.937Z,4.08
2023-02-15T05:25:17.592Z,4.35
2023-02-15T05:28:05.324Z,4.47
2023-02-15T05:30:33.525Z,4.04
2023-02-15T05:33:01.566Z,4.34
2023-02-15T05:35:29.397Z,3.97
2023-02-15T05:37:57.254Z,4.30
2023-02-15T05:40:25.128Z,4.15
2023-02-15T05:42:54.419Z,4.31
2023-02-15T05:45:22.300Z,4.13
2023-02-15T05:47:50.141Z,3.48
2023-02-15T05:50:18.407Z,3.85
2023-02-15T05:52:48.093Z,3.79
2023-02-15T05:55:16.023Z,4.03
2023-02-15T05:57:43.926Z,4.13
2023-02-15T06:00:14.832Z,4.19
2023-02-15T06:02:43.067Z,4.26
2023-02-15T06:05:10.992Z,4.41
2023-02-15T06:07:38.859Z,4.34
2023-02-15T06:10:08.259Z,4.40
2023-02-15T06:12:36.089Z,4.26
2023-02-15T06:15:03.998Z,4.38
2023-02-15T06:17:33.829Z,4.37
2023-02-15T06:20:01.795Z,4.37
2023-02-15T06:22:29.648Z,4.23
2023-02-15T06:24:57.515Z,4.30
2023-02-15T06:27:25.510Z,4.21
2023-02-15T06:29:53.426Z,3.58
2023-02-15T06:32:21.282Z,3.71
2023-02-15T06:34:50.559Z,3.30
2023-02-15T06:37:18.437Z,3.89
2023-02-15T06:39:46.333Z,4.03
2023-02-15T06:42:14.184Z,4.32
2023-02-15T06:44:42.208Z,4.38
2023-02-15T06:47:10.041Z,4.37
2023-02-15T06:49:37.924Z,4.12
2023-02-15T06:52:07.548Z,3.66
2023-02-15T06:54:35.429Z,3.84
2023-02-15T06:57:03.531Z,4.08
2023-02-15T06:59:31.411Z,3.91
2023-02-15T07:01:59.807Z,4.32
2023-02-15T07:04:29.611Z,4.28
2023-02-15T07:06:57.897Z,4.20
2023-02-15T07:09:27.469Z,4.10
2023-02-15T07:12:12.795Z,3.52
2023-02-15T07:14:41.533Z,4.06
2023-02-15T07:17:27.480Z,4.12
2023-02-15T07:19:57.270Z,4.12
2023-02-15T07:22:25.140Z,4.33
2023-02-15T07:24:55.743Z,3.87
2023-02-15T07:27:23.741Z,4.30
2023-02-15T07:29:51.710Z,4.18
2023-02-15T07:32:19.763Z,4.12
2023-02-15T07:34:47.720Z,3.94
2023-02-15T07:37:15.698Z,3.88
2023-02-15T07:39:43.671Z,4.12
2023-02-15T07:42:12.917Z,4.12
2023-02-15T07:44:41.482Z,4.36
2023-02-15T07:47:09.480Z,4.16
2023-02-15T07:49:37.479Z,4.18
2023-02-15T07:52:05.600Z,4.29
2023-02-15T07:54:33.475Z,4.31
2023-02-15T07:57:02.655Z,4.00
2023-02-15T07:59:32.250Z,3.61
2023-02-15T08:02:00.160Z,3.38
2023-02-15T08:04:28.116Z,3.90
2023-02-15T08:06:56.386Z,3.91
2023-02-15T08:09:24.530Z,4.00
2023-02-15T08:11:52.334Z,4.44
2023-02-15T08:14:21.510Z,4.76
2023-02-15T08:16:53.182Z,4.84
2023-02-15T08:19:23.524Z,4.85
2023-02-15T08:21:54.401Z,4.86
2023-02-15T08:24:23.979Z,4.89
2023-02-15T08:26:52.625Z,5.07
2023-02-15T08:29:23.399Z,4.17
2023-02-15T08:31:55.528Z,4.70
2023-02-15T08:34:23.551Z,4.90
2023-02-15T08:36:51.924Z,4.53
2023-02-15T08:39:19.787Z,4.77
2023-02-15T08:41:49.415Z,4.97
2023-02-15T08:44:19.140Z,4.90
2023-02-15T08:46:48.806Z,5.05
2023-02-15T08:49:20.199Z,5.14
2023-02-15T08:51:49.323Z,5.21
2023-02-15T08:54:19.464Z,5.40
2023-02-15T08:56:48.107Z,4.96
2023-02-15T08:59:18.695Z,5.22
2023-02-15T09:01:47.692Z,5.12
2023-02-15T09:04:16.822Z,5.47
2023-02-15T09:06:49.385Z,4.59
2023-02-15T09:09:17.976Z,4.71
2023-02-15T09:11:47.677Z,4.51
2023-02-15T09:14:17.497Z,5.39
2023-02-15T09:16:49.650Z,4.61
2023-02-15T09:19:18.501Z,4.44
2023-02-15T09:21:48.314Z,4.73
2023-02-15T09:24:17.881Z,5.14
2023-02-15T09:26:49.445Z,5.52
2023-02-15T09:29:18.996Z,5.13
2023-02-15T09:31:49.749Z,5.57
2023-02-15T09:34:19.917Z,6.13
2023-02-15T09:36:49.524Z,5.21
2023-02-15T09:39:19.475Z,5.78
2023-02-15T09:42:18.612Z,5.64
2023-02-15T09:45:08.127Z,5.58
2023-02-15T09:47:49.205Z,5.98
2023-02-15T09:50:27.831Z,6.23
2023-02-15T09:53:10.667Z,6.31
2023-02-15T09:55:51.060Z,6.57
2023-02-15T09:58:27.590Z,6.77
2023-02-15T10:01:04.650Z,7.04
2023-02-15T10:03:49.552Z,7.16
2023-02-15T10:06:34.800Z,7.04
2023-02-15T10:09:20.021Z,6.84
2023-02-15T10:12:12.670Z,6.95
2023-02-15T10:14:59.558Z,6.88
2023-02-15T10:17:39.793Z,7.33
2023-02-15T10:20:20.218Z,7.80
2023-02-15T10:23:07.387Z,7.87
2023-02-15T10:25:48.427Z,8.31
2023-02-15T10:28:19.733Z,8.05
2023-02-15T10:30:50.287Z,7.88
2023-02-15T10:33:33.126Z,8.37
2023-02-15T10:36:23.088Z,8.76
2023-02-15T10:38:58.624Z,8.88
2023-02-15T10:41:39.162Z,8.49
2023-02-15T10:44:23.390Z,9.39
2023-02-15T10:47:07.629Z,9.79
2023-02-15T10:49:54.052Z,9.46
2023-02-15T10:52:31.520Z,10.01
2023-02-15T10:55:09.969Z,10.07
2023-02-15T10:57:48.907Z,9.35
2023-02-15T11:00:21.560Z,10.17
2023-02-15T11:03:08.334Z,10.44
2023-02-15T11:05:50.109Z,10.72
2023-02-15T11:08:18.613Z,10.60
2023-02-15T11:10:52.528Z,10.36
2023-02-15T11:13:24.814Z,9.90
2023-02-15T11:15:56.094Z,10.48
2023-02-15T11:18:30.151Z,10.94
2023-02-15T11:21:01.984Z,10.35
2023-02-15T11:23:30.898Z,10.52
2023-02-15T11:26:01.113Z,10.48
2023-02-15T11:28:35.224Z,10.64
2023-02-15T11:31:14.963Z,11.18
2023-02-15T11:33:48.546Z,11.53
2023-02-15T11:36:19.772Z,11.43
2023-02-15T11:38:51.198Z,10.88
2023-02-15T11:41:25.157Z,10.97
2023-02-15T11:43:58.673Z,10.77
2023-02-15T11:46:27.043Z,11.13
2023-02-15T11:48:55.105Z,11.63
2023-02-15T11:51:25.024Z,12.34
2023-02-15T11:53:53.740Z,12.09
2023-02-15T11:56:24.416Z,12.09
2023-02-15T11:58:59.116Z,12.73
2023-02-15T12:01:32.893Z,12.71
2023-02-15T12:04:04.408Z,12.55
2023-02-15T12:06:35.689Z,12.93
2023-02-15T12:09:08.691Z,13.01
2023-02-15T12:11:39.199Z,12.85
2023-02-15T12:14:10.601Z,13.16
2023-02-15T12:16:44.889Z,13.20
2023-02-15T12:19:32.120Z,13.37
2023-02-15T12:22:01.909Z,13.55
2023-02-15T12:24:32.732Z,13.42
2023-02-15T12:27:04.776Z,13.15
2023-02-15T12:29:44.073Z,12.94
2023-02-15T12:32:19.231Z,13.34
2023-02-15T12:34:48.589Z,13.49
2023-02-15T12:37:19.543Z,13.45
2023-02-15T12:39:57.087Z,13.56
2023-02-15T12:42:26.207Z,13.12
2023-02-15T12:45:01.970Z,13.11
2023-02-15T12:47:31.870Z,13.04
2023-02-15T12:50:12.632Z,12.98
2023-02-15T12:52:41.062Z,13.16
2023-02-15T12:55:20.696Z,13.33
2023-02-15T12:57:49.060Z,13.07
2023-02-15T13:00:32.730Z,12.99
2023-02-15T13:03:02.721Z,11.66
2023-02-15T13:05:35.936Z,11.38
2023-02-15T13:08:12.044Z,11.69
2023-02-15T13:10:44.354Z,11.23
2023-02-15T13:13:13.820Z,10.94
2023-02-15T13:15:46.396Z,11.66
2023-02-15T13:18:18.255Z,11.80
2023-02-15T13:20:47.129Z,11.15
2023-02-15T13:23:30.984Z,11.41
2023-02-15T13:26:01.823Z,11.27
2023-02-15T13:28:40.666Z,11.46
2023-02-15T13:31:15.251Z,11.97
2023-02-15T13:33:46.617Z,12.25
2023-02-15T13:36:23.197Z,12.03
2023-02-15T13:39:17.728Z,12.45
2023-02-15T13:41:58.501Z,12.49
2023-02-15T13:44:42.499Z,12.51
2023-02-15T13:47:24.061Z,12.63
2023-02-15T13:50:07.772Z,12.59
2023-02-15T13:52:42.660Z,12.75
2023-02-15T13:55:28.579Z,13.02
2023-02-15T13:58:31.165Z,13.11
2023-02-15T14:01:09.540Z,12.98
2023-02-15T14:04:03.153Z,13.11
2023-02-15T14:06:53.031Z,13.22
2023-02-15T14:09:33.068Z,13.18
2023-02-15T14:12:22.897Z,13.16
2023-02-15T14:15:08.837Z,13.30
2023-02-15T14:17:49.694Z,13.22
2023-02-15T14:20:24.005Z,13.07
2023-02-15T14:23:03.760Z,13.15
2023-02-15T14:25:38.656Z,12.99
2023-02-15T14:28:12.545Z,13.29
2023-02-15T14:30:43.906Z,13.28
2023-02-15T14:33:33.198Z,13.29
2023-02-15T14:36:07.270Z,13.29
2023-02-15T14:38:58.538Z,13.15
2023-02-15T14:41:33.676Z,13.19
2023-02-15T14:44:09.359Z,13.03
2023-02-15T14:46:44.988Z,13.16
2023-02-15T14:49:15.009Z,13.08
2023-02-15T14:52:06.307Z,13.15
2023-02-15T14:55:01.830Z,13.13
2023-02-15T14:57:36.338Z,13.20
2023-02-15T15:00:39.011Z,13.17
2023-02-15T15:03:20.429Z,13.15
2023-02-15T15:05:53.026Z,12.66
2023-02-15T15:08:31.359Z,12.54
2023-02-15T15:11:42.083Z,12.82
2023-02-15T15:14:32.945Z,12.83
2023-02-15T15:17:01.723Z,12.38
2023-02-15T15:20:05.092Z,12.71
2023-02-15T15:22:34.532Z,12.94
2023-02-15T15:25:03.711Z,12.92
2023-02-15T15:27:44.050Z,12.95
2023-02-15T15:31:00.697Z,12.92
2023-02-15T15:34:05.516Z,12.92
2023-02-15T15:37:21.703Z,12.91
2023-02-15T15:40:26.875Z,12.85
2023-02-15T15:43:20.454Z,12.78
2023-02-15T15:46:13.227Z,12.79
2023-02-15T15:48:43.199Z,12.77
2023-02-15T15:51:20.094Z,12.73
2023-02-15T15:53:53.936Z,12.53
2023-02-15T15:56:25.561Z,12.27
2023-02-15T15:58:56.566Z,12.33
2023-02-15T16:01:29.514Z,12.38
2023-02-15T16:03:59.577Z,12.34
2023-02-15T16:06:35.684Z,12.05
2023-02-15T16:09:19.398Z,12.19
2023-02-15T16:11:50.009Z,12.14
2023-02-15T16:14:23.541Z,12.15
2023-02-15T16:16:54.448Z,12.21
2023-02-15T16:19:29.182Z,12.17
2023-02-15T16:22:02.686Z,12.11
2023-02-15T16:24:53.060Z,12.00
2023-02-15T16:27:38.591Z,11.92
2023-02-15T16:30:24.072Z,11.80
2023-02-15T16:32:55.341Z,11.65
2023-02-15T16:35:24.450Z,11.58
2023-02-15T16:37:53.743Z,11.59
2023-02-15T16:40:45.292Z,11.57
2023-02-15T16:43:18.787Z,11.53
2023-02-15T16:45:48.217Z,11.45
2023-02-15T16:48:22.158Z,11.36
2023-02-15T16:50:53.890Z,11.33
2023-02-15T16:53:26.176Z,11.28
2023-02-15T16:55:57.123Z,11.17
2023-02-15T16:58:30.967Z,11.04
2023-02-15T17:01:01.718Z,11.00
2023-02-15T17:03:30.846Z,10.98
2023-02-15T17:06:01.027Z,10.78
2023-02-15T17:08:33.635Z,10.70
2023-02-15T17:11:17.205Z,10.81
2023-02-15T17:14:03.608Z,10.81
2023-02-15T17:16:34.213Z,10.73
2023-02-15T17:19:03.881Z,10.70
2023-02-15T17:21:35.817Z,10.55
2023-02-15T17:24:06.141Z,10.49
2023-02-15T17:26:36.219Z,10.50
2023-02-15T17:29:14.436Z,10.47
2023-02-15T17:31:42.866Z,10.39
2023-02-15T17:34:44.853Z,10.48
2023-02-15T17:37:14.711Z,10.37
2023-02-15T17:39:43.996Z,10.29
2023-02-15T17:42:11.911Z,10.31
2023-02-15T17:44:39.777Z,10.28
2023-02-15T17:47:07.957Z,10.25
2023-02-15T17:49:37.994Z,10.15
2023-02-15T17:52:06.346Z,10.08
2023-02-15T17:54:48.140Z,10.06
2023-02-15T17:57:18.100Z,10.04
2023-02-15T18:00:03.715Z,10.05
2023-02-15T18:02:58.327Z,9.97
2023-02-15T18:05:43.812Z,9.96
2023-02-15T18:08:32.061Z,9.94
2023-02-15T18:11:19.173Z,9.99
2023-02-15T18:13:48.581Z,9.73
2023-02-15T18:16:18.232Z,9.77
2023-02-15T18:18:46.714Z,9.61
2023-02-15T18:21:14.873Z,9.57
2023-02-15T18:23:43.176Z,9.50
2023-02-15T18:26:19.668Z,9.47
2023-02-15T18:28:49.068Z,9.50
2023-02-15T18:31:17.323Z,9.55
2023-02-15T18:33:48.334Z,9.51
2023-02-15T18:36:22.060Z,9.61
2023-02-15T18:38:50.643Z,9.54
2023-02-15T18:41:20.339Z,9.56
2023-02-15T18:43:50.266Z,9.52
2023-02-15T18:46:18.726Z,9.47
2023-02-15T18:48:47.343Z,9.49
2023-02-15T18:51:18.710Z,9.58
2023-02-15T18:53:48.071Z,9.53
2023-02-15T18:56:21.211Z,9.50
2023-02-15T18:58:50.706Z,9.50
2023-02-15T19:01:20.957Z,9.43
2023-02-15T19:03:50.045Z,9.45
2023-02-15T19:06:20.237Z,9.40
2023-02-15T19:08:50.333Z,9.35
2023-02-15T19:11:23.062Z,9.32
2023-02-15T19:13:53.682Z,9.35
2023-02-15T19:16:31.617Z,9.28
2023-02-15T19:18:59.869Z,9.26
2023-02-15T19:21:29.377Z,9.24
2023-02-15T19:24:00.132Z,9.17
2023-02-15T19:26:44.447Z,9.18
2023-02-15T19:29:17.867Z,9.19
2023-02-15T19:31:45.829Z,9.17
2023-02-15T19:34:16.659Z,9.15
2023-02-15T19:36:45.863Z,9.19
2023-02-15T19:39:24.349Z,9.03
2023-02-15T19:41:52.954Z,8.93
2023-02-15T19:44:23.043Z,8.84
2023-02-15T19:46:50.972Z,9.01
2023-02-15T19:49:18.855Z,8.95
2023-02-15T19:51:47.561Z,8.84
2023-02-15T19:54:24.128Z,8.97
2023-02-15T19:56:51.956Z,8.89
2023-02-15T19:59:25.938Z,8.86
2023-02-15T20:01:54.392Z,8.86
2023-02-15T20:04:22.626Z,8.88
2023-02-15T20:06:52.051Z,8.77
2023-02-15T20:09:25.578Z,8.84
2023-02-15T20:11:54.147Z,8.83
2023-02-15T20:14:24.154Z,8.76
2023-02-15T20:16:52.525Z,8.75
2023-02-15T20:19:20.463Z,8.69
2023-02-15T20:21:54.399Z,8.69
2023-02-15T20:24:23.571Z,8.69
2023-02-15T20:26:51.442Z,8.61
2023-02-15T20:29:20.293Z,8.63
2023-02-15T20:31:49.705Z,8.67
2023-02-15T20:34:17.672Z,8.54
2023-02-15T20:36:45.550Z,8.58
2023-02-15T20:39:16.500Z,8.58
2023-02-15T20:41:48.204Z,8.50
2023-02-15T20:44:20.588Z,8.43
2023-02-15T20:46:50.945Z,8.39
2023-02-15T20:49:19.176Z,8.32
2023-02-15T20:51:48.076Z,8.29
2023-02-15T20:54:18.853Z,8.29
2023-02-15T20:56:47.404Z,8.24
2023-02-15T20:59:25.174Z,8.25
2023-02-15T21:01:58.816Z,8.20
2023-02-15T21:04:31.364Z,8.19
2023-02-15T21:06:59.388Z,8.04
2023-02-15T21:09:27.529Z,8.00
2023-02-15T21:11:57.386Z,7.98
2023-02-15T21:14:28.097Z,7.98
2023-02-15T21:16:57.370Z,7.98
2023-02-15T21:19:25.723Z,7.92
2023-02-15T21:21:54.313Z,7.84
2023-02-15T21:24:25.659Z,7.83
2023-02-15T21:26:54.987Z,7.78
2023-02-15T21:29:26.372Z,7.77
2023-02-15T21:31:54.406Z,7.67
2023-02-15T21:34:24.107Z,7.63
2023-02-15T21:36:51.951Z,7.63
2023-02-15T21:39:22.191Z,7.73
2023-02-15T21:42:09.549Z,7.73
2023-02-15T21:44:55.493Z,7.65
2023-02-15T21:47:48.329Z,7.57
2023-02-15T21:50:37.109Z,7.63
2023-02-15T21:53:06.582Z,7.56
2023-02-15T21:55:34.742Z,7.63
2023-02-15T21:58:03.086Z,7.58
2023-02-15T22:00:31.885Z,7.56
2023-02-15T22:03:01.871Z,7.57
2023-02-15T22:05:33.144Z,7.56
2023-02-15T22:08:01.400Z,7.59
2023-02-15T22:10:32.228Z,7.60
2023-02-15T22:13:01.966Z,7.51
2023-02-15T22:15:35.257Z,7.63
2023-02-15T22:18:03.824Z,7.60
2023-02-15T22:20:33.205Z,7.59
2023-02-15T22:23:01.198Z,7.61
2023-02-15T22:25:29.157Z,7.57
2023-02-15T22:27:57.217Z,7.54
2023-02-15T22:30:27.693Z,7.54
2023-02-15T22:32:56.972Z,7.44
2023-02-15T22:35:27.681Z,7.49
2023-02-15T22:37:57.284Z,7.41
2023-02-15T22:40:30.524Z,7.43
2023-02-15T22:42:59.394Z,7.53
2023-02-15T22:45:29.149Z,7.46
2023-02-15T22:48:00.425Z,7.55
2023-02-15T22:50:30.859Z,7.49
2023-02-15T22:53:02.663Z,7.51
2023-02-15T22:55:33.916Z,7.50
2023-02-15T22:58:02.330Z,7.46
2023-02-15T23:00:33.609Z,7.45
2023-02-15T23:03:02.280Z,7.36
2023-02-15T23:05:32.074Z,7.48
2023-02-15T23:08:01.394Z,7.34
2023-02-15T23:10:30.532Z,7.49
2023-02-15T23:13:17.972Z,7.41
2023-02-15T23:15:48.815Z,7.49
2023-02-15T23:18:19.980Z,7.51
2023-02-15T23:20:50.579Z,7.52
2023-02-15T23:23:25.602Z,7.59
2023-02-15T23:25:53.527Z,7.54
2023-02-15T23:28:25.460Z,7.55
2023-02-15T23:30:53.710Z,7.53
2023-02-15T23:33:23.632Z,7.56
2023-02-15T23:35:52.153Z,7.47
2023-02-15T23:38:26.356Z,7.40
2023-02-15T23:41:14.978Z,7.39
2023-02-15T23:43:44.942Z,7.39
2023-02-15T23:46:23.694Z,7.43
2023-02-15T23:48:52.903Z,7.39
2023-02-15T23:51:21.892Z,7.37
2023-02-15T23:53:51.161Z,7.31
2023-02-15T23:56:19.051Z,7.34
2023-02-15T23:58:47.784Z,7.33
